Time;durP1;ratioP1;P1;durP2;ratioP2;P2;SDS_P1;SDS_P2;PMS_P1;PMS_P2;Temp;Humidity;BMP_temperature;BMP_pressure;BME280_temperature;BME280_humidity;BME280_pressure;Samples;Min_cycle;Max_cycle;Signal;HPM_P1;HPM_P2
2021/07/30 00:01:56;;;;;;;4.55;2.78;;;;;;;22.83;54.78;101015.38;5078828;28;20059;-72
2021/07/30 00:04:21;;;;;;;3.22;2.22;;;;;;;22.80;54.70;101013.66;5078762;28;20028;-72
2021/07/30 00:06:47;;;;;;;2.90;2.45;;;;;;;22.80;54.70;101014.53;5078717;28;20020;-72
2021/07/30 00:09:12;;;;;;;4.80;2.60;;;;;;;22.82;54.71;101011.00;5097045;28;19908;-72
2021/07/30 00:11:39;;;;;;;2.88;2.10;;;;;;;22.74;54.80;101001.41;5095548;28;20111;-72
2021/07/30 00:14:05;;;;;;;3.60;2.40;;;;;;;22.82;54.72;101006.59;5095644;28;19907;-72
2021/07/30 00:16:30;;;;;;;2.67;2.38;;;;;;;22.83;54.73;101003.06;5096088;28;20316;-72
2021/07/30 00:18:56;;;;;;;3.15;2.17;;;;;;;22.78;54.78;100997.88;5097119;28;20088;-72
2021/07/30 00:21:21;;;;;;;3.35;2.42;;;;;;;22.79;54.86;100996.09;5096531;28;20024;-72
2021/07/30 00:23:46;;;;;;;3.67;1.77;;;;;;;22.81;54.72;100999.56;5096676;28;20020;-72
2021/07/30 00:26:12;;;;;;;3.65;2.65;;;;;;;22.78;54.69;100999.63;5095380;28;20040;-72
2021/07/30 00:28:37;;;;;;;2.30;1.77;;;;;;;22.79;54.92;100999.59;5094971;28;20028;-72
2021/07/30 00:31:03;;;;;;;2.20;1.80;;;;;;;22.80;54.66;100998.72;5095827;28;20032;-72
2021/07/30 00:33:28;;;;;;;3.38;2.47;;;;;;;22.81;54.81;101002.22;5096591;28;20587;-72
2021/07/30 00:35:55;;;;;;;2.47;1.98;;;;;;;22.80;54.88;101000.47;5112396;28;20020;-72
2021/07/30 00:38:20;;;;;;;3.45;2.35;;;;;;;22.74;54.80;100988.25;5097559;28;20027;-73
2021/07/30 00:40:46;;;;;;;3.42;2.95;;;;;;;22.77;54.77;100992.63;5079015;28;20028;-72
2021/07/30 00:43:11;;;;;;;2.92;1.85;;;;;;;22.73;54.81;100980.34;5078491;28;20044;-72
2021/07/30 00:45:37;;;;;;;3.55;2.30;;;;;;;22.73;54.72;100986.50;5097410;28;20050;-72
2021/07/30 00:48:06;;;;;;;3.40;1.87;;;;;;;22.76;54.88;100991.75;5078729;28;20458;-72
2021/07/30 00:50:33;;;;;;;3.42;2.50;;;;;;;22.73;54.71;100977.72;5096138;28;20050;-72
2021/07/30 00:52:58;;;;;;;3.50;2.55;;;;;;;22.73;54.75;100975.94;5081326;28;20551;-72
2021/07/30 00:55:24;;;;;;;2.47;2.20;;;;;;;22.79;54.82;100988.19;5098286;28;20031;-72
2021/07/30 00:57:52;;;;;;;3.83;2.50;;;;;;;22.78;54.83;100983.81;5098283;28;20028;-73
2021/07/30 01:00:18;;;;;;;3.40;2.83;;;;;;;22.76;54.85;100991.75;5116672;28;20024;-73
2021/07/30 01:02:44;;;;;;;3.35;2.55;;;;;;;22.72;54.69;100976.00;5116467;28;20073;-73
2021/07/30 01:05:10;;;;;;;3.33;2.53;;;;;;;22.73;54.87;100975.09;5098138;28;19912;-74
2021/07/30 01:07:36;;;;;;;3.08;2.13;;;;;;;22.74;54.91;100980.31;5116158;28;20076;-74
2021/07/30 01:10:01;;;;;;;3.70;2.28;;;;;;;22.73;54.98;100973.31;5080866;28;20047;-74
2021/07/30 01:12:27;;;;;;;3.30;2.50;;;;;;;22.76;54.77;100975.94;5081337;28;20069;-74
2021/07/30 01:14:54;;;;;;;2.70;1.92;;;;;;;22.76;54.71;100982.97;5097873;28;19911;-74
2021/07/30 01:17:20;;;;;;;3.15;2.50;;;;;;;22.73;54.88;100977.72;5097629;28;20036;-74
2021/07/30 01:19:46;;;;;;;3.13;2.38;;;;;;;22.74;54.84;100972.41;5097925;28;20036;-74
2021/07/30 01:22:19;;;;;;;3.15;2.20;;;;;;;22.77;54.49;100976.81;5080872;28;20439;-74
2021/07/30 01:24:45;;;;;;;2.50;2.20;;;;;;;22.73;54.86;100975.94;5115948;28;19947;-74
2021/07/30 01:27:10;;;;;;;3.30;2.30;;;;;;;22.75;54.92;100976.78;5097668;28;19958;-74
2021/07/30 01:29:35;;;;;;;3.47;2.40;;;;;;;22.73;54.84;100978.59;5097353;28;20118;-74
2021/07/30 01:32:01;;;;;;;2.60;2.17;;;;;;;22.74;54.78;100979.47;5115846;28;20039;-74
2021/07/30 01:34:26;;;;;;;3.90;2.90;;;;;;;22.72;54.83;100974.22;5080716;28;20027;-74
2021/07/30 01:36:52;;;;;;;3.20;2.35;;;;;;;22.75;54.73;100979.44;5097441;28;20510;-74
2021/07/30 01:39:17;;;;;;;3.85;2.55;;;;;;;22.74;54.73;100980.31;5080447;28;20381;-74
2021/07/30 01:41:43;;;;;;;3.85;3.25;;;;;;;22.75;54.71;100984.69;5080056;28;20055;-74
2021/07/30 01:44:08;;;;;;;2.65;1.95;;;;;;;22.70;54.88;100975.16;5080462;28;20042;-74
2021/07/30 01:46:33;;;;;;;2.65;2.17;;;;;;;22.73;54.87;100975.94;5097354;28;20032;-74
2021/07/30 01:48:59;;;;;;;2.20;1.70;;;;;;;22.72;54.91;100984.75;5115178;28;20059;-74
2021/07/30 01:51:24;;;;;;;2.90;2.60;;;;;;;22.71;54.71;100969.88;5115026;28;19925;-74
2021/07/30 01:53:50;;;;;;;2.77;2.13;;;;;;;22.73;54.65;100973.31;5080350;28;20078;-74
2021/07/30 01:56:16;;;;;;;3.88;2.38;;;;;;;22.70;54.96;100969.91;5096879;28;20062;-74
2021/07/30 01:58:41;;;;;;;2.60;1.85;;;;;;;22.71;54.81;100966.38;5096935;28;20063;-73
2021/07/30 02:01:06;;;;;;;3.92;3.13;;;;;;;22.70;54.63;100954.94;5097184;28;20042;-74
2021/07/30 02:03:32;;;;;;;2.55;2.15;;;;;;;22.72;54.85;100965.47;5080022;28;20027;-74
2021/07/30 02:05:57;;;;;;;2.60;1.97;;;;;;;22.70;54.83;100960.22;5080408;28;19954;-74
2021/07/30 02:08:23;;;;;;;2.50;1.85;;;;;;;22.69;54.71;100954.97;5115404;28;20255;-74
2021/07/30 02:10:48;;;;;;;2.60;2.38;;;;;;;22.70;54.74;100962.00;5114772;28;20454;-74
2021/07/30 02:15:58;;;;;;;2.67;2.28;;;;;;;22.68;55.09;100961.16;5085423;28;20073;-74
2021/07/30 02:18:23;;;;;;;3.30;2.13;;;;;;;22.66;54.78;100953.25;5114682;28;20466;-74
2021/07/30 02:20:48;;;;;;;2.78;1.88;;;;;;;22.66;54.67;100952.41;5079766;28;20084;-74
2021/07/30 02:23:14;;;;;;;3.42;2.30;;;;;;;22.71;54.78;100966.38;5096749;28;20038;-72
2021/07/30 02:25:39;;;;;;;2.13;1.70;;;;;;;22.70;54.83;100962.00;5114655;28;20027;-72
2021/07/30 02:28:05;;;;;;;3.15;2.00;;;;;;;22.67;54.82;100954.13;5096461;28;20034;-72
2021/07/30 02:30:30;;;;;;;3.20;2.40;;;;;;;22.66;54.89;100963.81;5096215;28;20080;-72
2021/07/30 02:32:56;;;;;;;3.28;1.98;;;;;;;22.66;54.76;100962.94;5096374;28;20153;-72
2021/07/30 02:35:21;;;;;;;2.50;1.90;;;;;;;22.68;54.81;100963.78;5114518;28;20006;-72
2021/07/30 02:37:46;;;;;;;;;;;;;;;22.70;54.75;100962.00;5096475;28;19915;-72
2021/07/30 02:40:12;;;;;;;2.20;2.00;;;;;;;22.65;54.95;100950.66;5114512;28;20273;-73
2021/07/30 02:42:37;;;;;;;;;;;;;;;22.68;54.77;100947.97;5097093;28;19915;-73
2021/07/30 02:45:03;;;;;;;3.30;1.80;;;;;;;22.68;54.68;100953.25;5099038;28;20012;-74
2021/07/30 02:47:29;;;;;;;2.67;2.17;;;;;;;22.67;54.86;100949.72;5116812;28;20273;-74
2021/07/30 02:49:54;;;;;;;2.67;1.83;;;;;;;22.68;54.71;100946.19;5098637;28;20036;-74
2021/07/30 02:52:19;;;;;;;;;;;;;;;22.70;54.58;100948.81;5115364;28;20044;-74
2021/07/30 02:54:45;;;;;;;2.97;2.30;;;;;;;22.68;54.77;100953.25;5084106;28;19974;-74
2021/07/30 02:57:10;;;;;;;2.80;2.40;;;;;;;22.66;54.64;100948.00;5128989;28;20081;-74
2021/07/30 02:59:35;;;;;;;3.40;2.60;;;;;;;22.64;54.79;100935.75;5106753;28;20035;-74
2021/07/30 03:02:01;;;;;;;2.55;2.08;;;;;;;22.66;54.52;100931.31;5095437;28;20122;-73
2021/07/30 03:04:26;;;;;;;4.05;2.25;;;;;;;22.67;54.71;100933.91;5099547;28;20063;-74
2021/07/30 03:06:52;;;;;;;3.22;2.60;;;;;;;22.66;54.77;100928.66;5116954;28;20028;-74
2021/07/30 03:09:17;;;;;;;3.42;2.15;;;;;;;22.62;54.63;100919.94;5082820;28;20043;-74
2021/07/30 03:11:42;;;;;;;2.63;2.33;;;;;;;22.63;54.85;100924.31;5082373;28;20026;-74
2021/07/30 03:14:08;;;;;;;2.30;1.80;;;;;;;22.62;54.65;100914.69;5099159;28;20024;-74
2021/07/30 03:16:33;;;;;;;3.60;2.33;;;;;;;22.65;54.90;100916.38;5098793;28;20035;-74
2021/07/30 03:18:58;;;;;;;4.70;2.55;;;;;;;22.65;54.73;100930.44;5116183;28;20084;-72
2021/07/30 03:21:24;;;;;;;2.90;2.30;;;;;;;22.67;54.69;100931.28;5098116;28;20058;-72
2021/07/30 03:23:49;;;;;;;2.50;2.00;;;;;;;22.61;54.81;100918.22;5097580;28;20107;-74
2021/07/30 03:26:15;;;;;;;2.20;1.70;;;;;;;22.65;54.54;100916.38;5081468;28;20437;-72
2021/07/30 03:28:40;;;;;;;3.08;2.40;;;;;;;22.63;54.65;100916.41;5097724;28;20062;-72
2021/07/30 03:31:05;;;;;;;3.10;1.92;;;;;;;22.66;54.67;100926.03;5097174;28;20048;-74
2021/07/30 03:33:31;;;;;;;3.20;2.07;;;;;;;22.65;54.74;100924.28;5096420;28;20023;-72
2021/07/30 03:35:56;;;;;;;2.38;1.90;;;;;;;22.62;54.78;100919.94;5079424;28;20458;-73
2021/07/30 03:38:22;;;;;;;4.20;2.65;;;;;;;22.61;54.79;100915.56;5096165;28;20035;-72
2021/07/30 03:40:47;;;;;;;3.00;1.98;;;;;;;22.62;54.59;100919.94;5079298;28;19947;-73
2021/07/30 03:43:12;;;;;;;2.55;2.15;;;;;;;22.63;54.54;100912.91;5114506;28;20431;-73
2021/07/30 03:45:40;;;;;;;2.90;1.88;;;;;;;22.62;54.60;100919.94;5079242;28;20063;-72
2021/07/30 03:48:06;;;;;;;2.20;1.83;;;;;;;22.65;54.36;100917.25;5096746;28;20039;-72
2021/07/30 03:50:31;;;;;;;2.45;1.85;;;;;;;22.59;54.83;100906.81;5097320;28;20051;-72
2021/07/30 03:53:00;;;;;;;2.95;2.17;;;;;;;22.60;54.63;100908.56;5081972;28;20055;-74
2021/07/30 03:55:26;;;;;;;2.63;2.15;;;;;;;22.61;54.60;100917.34;5100671;28;20433;-74
2021/07/30 03:57:51;;;;;;;2.92;1.98;;;;;;;22.58;54.63;100914.78;5100095;28;20028;-74
2021/07/30 04:00:16;;;;;;;3.00;2.47;;;;;;;22.63;54.62;100926.09;5099910;28;20381;-74
2021/07/30 04:02:42;;;;;;;2.38;1.85;;;;;;;22.63;54.47;100918.19;5117554;28;20023;-74
2021/07/30 04:05:08;;;;;;;2.60;2.08;;;;;;;22.61;54.57;100918.22;5100813;28;20397;-74
2021/07/30 04:07:33;;;;;;;7.40;2.55;;;;;;;22.63;54.59;100913.78;5120190;28;20036;-74
2021/07/30 04:09:58;;;;;;;2.55;1.98;;;;;;;22.64;54.57;100915.53;5067979;28;20019;-74
2021/07/30 04:12:24;;;;;;;3.38;2.53;;;;;;;22.63;54.86;100916.41;5102730;28;20031;-74
2021/07/30 04:14:49;;;;;;;3.42;2.10;;;;;;;22.58;54.58;100913.03;5103183;28;20062;-74
2021/07/30 04:17:15;;;;;;;2.50;2.05;;;;;;;22.60;54.67;100911.19;5101389;28;20019;-73
2021/07/30 04:19:43;;;;;;;2.20;1.65;;;;;;;22.60;54.57;100905.06;5118717;28;20027;-72
2021/07/30 04:22:10;;;;;;;2.67;2.20;;;;;;;22.63;54.54;100910.28;5083846;28;20481;-72
2021/07/30 04:24:36;;;;;;;3.80;2.17;;;;;;;22.61;54.64;100898.88;5118546;28;20049;-73
2021/07/30 04:27:01;;;;;;;2.80;2.35;;;;;;;22.63;54.59;100905.00;5100315;28;20024;-71
2021/07/30 04:29:27;;;;;;;2.65;1.80;;;;;;;22.60;54.47;100895.38;5100403;28;20378;-72
2021/07/30 04:31:52;;;;;;;1.95;1.63;;;;;;;22.63;54.74;100900.59;5083491;28;20035;-72
2021/07/30 04:34:17;;;;;;;2.22;1.90;;;;;;;22.64;54.62;100901.47;5100245;28;20100;-72
2021/07/30 04:36:43;;;;;;;2.35;1.90;;;;;;;22.65;54.59;100901.44;5082511;28;20055;-74
2021/07/30 04:39:08;;;;;;;4.85;2.60;;;;;;;22.61;54.67;100893.63;5082459;28;20035;-72
2021/07/30 04:41:34;;;;;;;2.50;2.17;;;;;;;22.61;54.15;100890.97;5099431;28;20091;-72
2021/07/30 04:43:59;;;;;;;3.20;2.13;;;;;;;22.59;54.52;100891.00;5082835;28;20023;-72
2021/07/30 04:46:25;;;;;;;2.22;2.03;;;;;;;22.63;54.58;100884.78;5082742;28;20030;-72
2021/07/30 04:48:51;;;;;;;2.33;1.90;;;;;;;22.63;54.61;100884.78;5082615;28;20062;-72
2021/07/30 04:51:18;;;;;;;2.67;2.35;;;;;;;22.61;54.50;100883.06;5117517;28;20094;-72
2021/07/30 04:53:43;;;;;;;2.10;1.75;;;;;;;22.51;54.54;100865.72;5096069;28;20502;-72
2021/07/30 04:56:16;;;;;;;3.15;1.90;;;;;;;22.63;54.56;100887.41;5113183;28;20089;-73
2021/07/30 04:58:42;;;;;;;2.95;2.05;;;;;;;22.64;54.66;100891.78;5097429;28;20024;-73
2021/07/30 05:01:07;;;;;;;2.50;2.20;;;;;;;22.60;54.56;100879.56;5096360;28;20469;-72
2021/07/30 05:03:32;;;;;;;2.40;1.70;;;;;;;22.61;54.35;100886.59;5078887;28;20028;-74
2021/07/30 05:05:58;;;;;;;2.50;2.13;;;;;;;22.63;54.48;100884.78;5078452;28;20031;-72
2021/07/30 05:08:23;;;;;;;3.53;2.15;;;;;;;22.63;54.59;100881.28;5112015;28;20032;-72
2021/07/30 05:10:50;;;;;;;2.42;2.22;;;;;;;22.55;54.61;100864.78;5094951;28;20127;-72
2021/07/30 05:13:15;;;;;;;3.40;1.80;;;;;;;22.58;54.58;100867.34;5095882;28;20102;-72
2021/07/30 05:15:41;;;;;;;2.47;1.80;;;;;;;22.64;54.67;100880.38;5094222;28;20084;-72
2021/07/30 05:18:06;;;;;;;2.63;2.20;;;;;;;22.61;54.56;100883.94;5095328;28;20139;-72
2021/07/30 05:20:31;;;;;;;3.20;2.47;;;;;;;22.61;54.47;100873.41;5078410;28;20061;-73
2021/07/30 05:22:57;;;;;;;3.00;2.45;;;;;;;22.63;54.59;100868.97;5094979;28;20028;-73
2021/07/30 05:25:22;;;;;;;2.95;2.22;;;;;;;22.65;54.59;100876.84;5096550;28;20035;-72
2021/07/30 05:27:47;;;;;;;2.38;2.10;;;;;;;22.64;54.55;100878.63;5078734;28;20123;-72
2021/07/30 05:30:13;;;;;;;3.40;2.47;;;;;;;22.61;54.57;100875.16;5094644;28;20060;-72
2021/07/30 05:32:38;;;;;;;3.30;2.30;;;;;;;22.60;54.54;100874.31;5094842;28;20032;-72
2021/07/30 05:35:04;;;;;;;2.40;1.80;;;;;;;22.62;54.53;100874.28;5094613;28;20024;-72
2021/07/30 05:37:29;;;;;;;2.22;1.65;;;;;;;22.63;54.61;100874.25;5077569;28;20386;-72
2021/07/30 05:39:54;;;;;;;2.75;1.98;;;;;;;22.64;54.49;100872.47;5094210;28;20028;-72
2021/07/30 05:42:20;;;;;;;2.20;1.70;;;;;;;22.64;54.65;100869.84;5095424;28;20027;-72
2021/07/30 05:44:45;;;;;;;3.05;2.55;;;;;;;22.62;54.31;100869.00;5094031;28;20118;-72
2021/07/30 05:47:10;;;;;;;2.85;1.77;;;;;;;22.61;54.55;100867.25;5076898;28;20024;-72
2021/07/30 05:49:36;;;;;;;2.65;2.22;;;;;;;22.62;54.53;100866.38;5060071;28;20039;-72
2021/07/30 05:52:01;;;;;;;2.47;1.83;;;;;;;22.64;54.54;100860.16;5094918;28;20059;-72
2021/07/30 05:54:27;;;;;;;3.00;1.85;;;;;;;22.65;54.34;100859.25;5114560;28;20513;-72
2021/07/30 05:56:56;;;;;;;2.40;1.88;;;;;;;22.64;54.47;100854.88;5080384;28;20057;-72
2021/07/30 05:59:23;;;;;;;2.75;1.92;;;;;;;22.66;54.41;100857.50;5115446;28;20388;-72
2021/07/30 06:01:48;;;;;;;2.20;1.52;;;;;;;22.74;54.30;100869.59;5097077;28;20458;-72
2021/07/30 06:04:13;;;;;;;5.80;2.42;;;;;;;22.76;54.44;100873.09;5097097;28;20030;-72
2021/07/30 06:06:39;;;;;;;2.75;2.42;;;;;;;22.74;54.23;100866.97;5097028;28;20049;-72
2021/07/30 06:09:04;;;;;;;3.70;2.00;;;;;;;22.73;54.27;100862.59;5079934;28;20529;-72
2021/07/30 06:11:29;;;;;;;3.28;1.95;;;;;;;22.75;54.21;100863.44;5114807;28;20122;-72
2021/07/30 06:13:55;;;;;;;2.72;1.95;;;;;;;22.77;54.24;100871.34;5114855;28;20142;-72
2021/07/30 06:16:20;;;;;;;2.80;2.15;;;;;;;22.74;53.82;100866.09;5096448;28;20035;-72
2021/07/30 06:18:46;;;;;;;1.98;1.65;;;;;;;22.73;54.27;100869.63;5079596;28;20032;-72
2021/07/30 06:21:11;;;;;;;3.92;2.17;;;;;;;22.71;54.34;100860.91;5114874;28;20028;-72
2021/07/30 06:23:36;;;;;;;3.25;2.55;;;;;;;22.76;54.39;100865.19;5096672;28;20110;-72
2021/07/30 06:26:02;;;;;;;2.70;1.90;;;;;;;22.74;54.34;100863.47;5079657;28;20027;-72
2021/07/30 06:28:27;;;;;;;2.50;2.22;;;;;;;22.70;54.32;100856.53;5078662;28;20046;-72
2021/07/30 06:30:52;;;;;;;1.85;1.63;;;;;;;22.74;54.23;100864.31;5079645;28;20431;-72
2021/07/30 06:33:18;;;;;;;2.78;2.15;;;;;;;22.70;54.37;100852.13;5114483;28;20031;-71
2021/07/30 06:35:50;;;;;;;1.63;1.50;;;;;;;22.71;54.55;100860.91;5079387;28;20023;-72
2021/07/30 06:38:15;;;;;;;2.72;1.98;;;;;;;22.72;54.35;100858.22;5115059;28;20065;-73
2021/07/30 06:40:44;;;;;;;3.85;1.52;;;;;;;22.74;54.34;100855.53;5097341;28;20020;-74
2021/07/30 06:43:09;;;;;;;2.08;1.52;;;;;;;22.72;53.99;100838.94;5096364;28;20028;-73
2021/07/30 06:45:35;;;;;;;2.70;2.00;;;;;;;22.71;54.06;100831.91;5096831;28;20085;-74
2021/07/30 06:48:00;;;;;;;2.45;1.85;;;;;;;22.74;54.35;100842.38;5096672;28;20124;-74
2021/07/30 06:50:25;;;;;;;2.03;1.50;;;;;;;22.76;54.35;100844.09;5079254;28;20049;-74
2021/07/30 06:52:51;;;;;;;1.98;1.52;;;;;;;22.74;54.32;100845.00;5083217;28;20051;-72
2021/07/30 06:55:16;;;;;;;4.75;2.63;;;;;;;22.73;54.17;100838.00;5098756;28;20531;-73
2021/07/30 06:57:42;;;;;;;2.35;2.03;;;;;;;22.77;54.37;100839.69;5101371;28;20087;-72
2021/07/30 07:00:08;;;;;;;2.92;2.25;;;;;;;22.76;54.15;100835.31;5087915;28;20049;-72
2021/07/30 07:02:33;;;;;;;2.17;1.83;;;;;;;22.82;54.41;100831.69;5080854;28;20035;-72
2021/07/30 07:04:58;;;;;;;2.20;2.00;;;;;;;22.83;54.20;100817.63;5080193;28;20035;-75
2021/07/30 07:07:24;;;;;;;2.40;1.83;;;;;;;22.84;54.03;100828.13;5096693;28;20035;-73
2021/07/30 07:09:52;;;;;;;3.25;2.13;;;;;;;22.88;54.01;100835.03;5080474;28;20519;-73
2021/07/30 07:12:17;;;;;;;2.58;2.03;;;;;;;22.89;54.27;100828.00;5115066;28;20019;-73
2021/07/30 07:14:43;;;;;;;2.22;1.50;;;;;;;22.88;53.99;100826.25;5096306;28;20069;-74
2021/07/30 07:17:08;;;;;;;4.07;1.58;;;;;;;22.90;53.88;100827.09;5115230;28;20493;-74
2021/07/30 07:19:33;;;;;;;2.50;1.80;;;;;;;22.93;54.17;100829.69;5115434;28;20036;-74
2021/07/30 07:21:59;;;;;;;2.30;2.05;;;;;;;22.88;54.08;100827.13;5114352;28;20015;-74
2021/07/30 07:24:25;;;;;;;2.20;1.75;;;;;;;22.88;54.17;100826.25;5114906;28;20031;-74
2021/07/30 07:26:50;;;;;;;2.08;1.40;;;;;;;22.90;54.04;100824.47;5095975;28;20039;-72
2021/07/30 07:29:15;;;;;;;3.58;1.80;;;;;;;22.89;54.16;100823.59;5078914;28;20051;-72
2021/07/30 07:31:44;;;;;;;3.13;2.30;;;;;;;22.91;54.06;100828.84;5095922;28;20470;-72
2021/07/30 07:34:10;;;;;;;2.25;1.58;;;;;;;22.87;54.28;100820.13;5095990;28;20114;-72
2021/07/30 07:36:35;;;;;;;2.17;1.75;;;;;;;22.87;54.37;100819.25;5095989;28;20080;-72
2021/07/30 07:39:00;;;;;;;2.42;1.95;;;;;;;22.87;54.19;100817.50;5097597;28;20153;-73
2021/07/30 07:41:26;;;;;;;2.50;2.00;;;;;;;22.87;54.41;100816.63;5118470;28;20379;-72
2021/07/30 07:43:51;;;;;;;3.05;1.98;;;;;;;22.82;54.02;100808.84;5100042;28;20051;-72
2021/07/30 07:46:17;;;;;;;2.25;1.85;;;;;;;22.82;53.91;100805.34;5118347;28;20381;-72
2021/07/30 07:48:42;;;;;;;2.05;1.80;;;;;;;22.86;54.20;100812.25;5082889;28;20639;-72
2021/07/30 07:51:07;;;;;;;2.33;1.60;;;;;;;22.82;54.14;100798.28;5099709;28;20084;-72
2021/07/30 07:53:33;;;;;;;3.40;1.67;;;;;;;22.85;54.01;100808.75;5082952;28;20142;-72
2021/07/30 07:56:03;;;;;;;2.65;1.60;;;;;;;22.83;54.35;100800.03;5118005;28;20032;-72
2021/07/30 07:58:33;;;;;;;2.63;1.80;;;;;;;22.85;54.54;100794.72;5117874;28;20024;-72
2021/07/30 08:00:59;;;;;;;2.47;1.52;;;;;;;22.82;54.09;100787.75;5099950;28;20473;-73
2021/07/30 08:03:25;;;;;;;2.35;1.83;;;;;;;22.86;54.07;100792.03;5118052;28;20024;-72
2021/07/30 08:05:50;;;;;;;5.88;1.83;;;;;;;22.85;53.88;100789.44;5117963;28;20488;-72
2021/07/30 08:08:16;;;;;;;1.88;1.60;;;;;;;22.86;54.03;100785.88;5082243;28;20059;-72
2021/07/30 08:10:41;;;;;;;2.47;1.63;;;;;;;22.90;53.91;100792.81;5099339;28;20099;-72
2021/07/30 08:13:07;;;;;;;2.75;1.80;;;;;;;22.88;54.23;100784.94;5099502;28;20466;-72
2021/07/30 08:15:32;;;;;;;2.50;2.08;;;;;;;22.86;53.97;100778.84;5099482;28;20028;-73
2021/07/30 08:17:57;;;;;;;2.30;1.52;;;;;;;22.86;54.06;100780.59;5082643;28;20126;-72
2021/07/30 08:20:23;;;;;;;2.90;2.03;;;;;;;22.81;54.08;100772.81;5117436;28;20059;-72
2021/07/30 08:22:48;;;;;;;2.47;2.03;;;;;;;22.86;53.95;100783.25;5081959;28;20493;-72
2021/07/30 08:25:14;;;;;;;2.33;1.70;;;;;;;22.85;53.93;100777.09;5098986;28;20032;-72
2021/07/30 08:27:40;;;;;;;2.88;1.75;;;;;;;22.83;53.66;100768.38;5117047;28;20054;-72
2021/07/30 08:30:06;;;;;;;2.35;1.92;;;;;;;22.80;54.02;100769.31;5098890;28;20024;-72
2021/07/30 08:32:32;;;;;;;2.35;1.80;;;;;;;22.87;54.22;100783.22;5082294;28;20031;-72
2021/07/30 08:34:58;;;;;;;2.30;1.88;;;;;;;22.88;54.17;100778.81;5117069;28;20046;-72
2021/07/30 08:37:23;;;;;;;2.80;2.08;;;;;;;22.83;54.01;100767.53;5098552;28;20545;-72
2021/07/30 08:39:48;;;;;;;2.60;1.75;;;;;;;22.88;53.99;100784.06;5081600;28;20039;-72
2021/07/30 08:42:15;;;;;;;2.92;2.25;;;;;;;22.84;53.90;100771.88;5116989;28;20026;-72
2021/07/30 08:44:41;;;;;;;4.00;2.42;;;;;;;22.86;53.84;100770.91;5081721;28;20065;-72
2021/07/30 08:47:07;;;;;;;3.08;1.35;;;;;;;22.86;53.79;100759.50;5098468;28;20028;-72
2021/07/30 08:49:34;;;;;;;2.50;1.98;;;;;;;22.87;53.87;100763.88;5098198;28;20394;-72
2021/07/30 08:52:07;;;;;;;2.00;1.45;;;;;;;22.85;53.85;100755.16;5098006;28;20355;-72
2021/07/30 08:54:32;;;;;;;1.90;1.70;;;;;;;22.89;53.74;100759.44;5098344;28;20134;-72
2021/07/30 08:56:58;;;;;;;2.40;1.80;;;;;;;22.89;53.60;100756.81;5098213;28;20043;-75
2021/07/30 08:59:23;;;;;;;3.22;2.17;;;;;;;22.92;53.45;100749.69;5081371;28;20035;-72
2021/07/30 09:02:00;;;;;;;2.75;1.75;;;;;;;22.91;53.68;100740.06;5098141;28;20114;-72
2021/07/30 09:04:30;;;;;;;2.60;2.17;;;;;;;22.97;53.42;100744.31;5098444;28;20031;-72
2021/07/30 09:06:57;;;;;;;2.53;1.95;;;;;;;22.93;53.50;100726.81;5116098;28;20476;-72
2021/07/30 09:09:24;;;;;;;2.50;1.83;;;;;;;22.99;53.49;100740.72;5098069;28;20027;-72
2021/07/30 09:11:57;;;;;;;2.35;1.75;;;;;;;23.00;53.59;100737.16;5098067;28;20418;-72
2021/07/30 09:14:33;;;;;;;2.50;2.30;;;;;;;23.05;53.21;100731.78;5116186;28;20526;-72
2021/07/30 09:16:59;;;;;;;2.88;2.17;;;;;;;23.04;53.40;100727.41;5116139;28;20062;-73
2021/07/30 09:19:25;;;;;;;1.90;1.70;;;;;;;23.06;53.82;100725.63;5097796;28;20032;-72
2021/07/30 09:22:10;;;;;;;2.30;2.00;;;;;;;23.06;53.31;100718.56;5116126;28;20023;-72
2021/07/30 09:24:38;;;;;;;2.38;1.67;;;;;;;23.02;53.46;100713.41;5097556;28;20042;-72
2021/07/30 09:27:05;;;;;;;2.42;1.85;;;;;;;23.03;53.37;100716.00;5080644;28;20123;-72
2021/07/30 09:29:32;;;;;;;2.63;1.50;;;;;;;23.03;53.34;100712.50;5115784;28;20038;-72
2021/07/30 09:32:10;;;;;;;2.63;2.05;;;;;;;23.00;53.54;100710.78;5115855;28;20016;-72
2021/07/30 09:34:49;;;;;;;2.53;1.73;;;;;;;23.00;53.60;100708.16;5097477;28;20024;-73
2021/07/30 09:37:21;;;;;;;3.13;1.98;;;;;;;23.00;53.26;100700.25;5115723;28;20028;-72
2021/07/30 09:39:49;;;;;;;2.17;1.83;;;;;;;22.94;53.47;100692.50;5097275;28;20035;-72
2021/07/30 09:42:32;;;;;;;2.22;1.65;;;;;;;23.01;53.49;100701.97;5080625;28;20276;-72
2021/07/30 09:44:59;;;;;;;3.83;2.70;;;;;;;23.03;53.38;100704.59;5097323;28;20026;-73
2021/07/30 09:47:27;;;;;;;2.92;1.70;;;;;;;23.04;53.40;100701.91;5115360;28;20047;-73
2021/07/30 09:49:58;;;;;;;2.40;1.40;;;;;;;23.05;53.51;100695.72;5097119;28;20378;-73
2021/07/30 09:52:26;;;;;;;3.28;2.10;;;;;;;23.00;53.26;100680.91;5096869;28;20038;-73
2021/07/30 09:54:57;;;;;;;1.88;1.58;;;;;;;23.08;53.38;100687.75;5080255;28;20385;-72
2021/07/30 09:57:27;;;;;;;2.75;1.92;;;;;;;23.10;53.09;100688.56;5115324;28;20061;-72
2021/07/30 10:00:07;;;;;;;2.30;1.73;;;;;;;23.14;53.11;100682.28;5096823;28;20027;-73
2021/07/30 10:02:34;;;;;;;2.05;1.55;;;;;;;23.13;53.24;100683.19;5096863;28;20028;-72
2021/07/30 10:05:01;;;;;;;1.95;1.55;;;;;;;23.14;53.26;100681.41;5097314;28;20041;-73
2021/07/30 10:07:28;;;;;;;2.08;1.75;;;;;;;23.13;53.11;100679.69;5081022;28;20027;-73
2021/07/30 10:10:10;;;;;;;2.38;1.77;;;;;;;23.16;53.29;100677.84;5115756;28;20047;-73
2021/07/30 10:12:38;;;;;;;2.03;1.63;;;;;;;23.14;52.95;100661.19;5096909;28;20081;-73
2021/07/30 10:15:05;;;;;;;2.95;2.13;;;;;;;23.17;53.05;100668.16;5097306;28;20386;-73
2021/07/30 10:17:33;;;;;;;3.03;1.95;;;;;;;23.14;53.14;100666.47;5080801;28;20036;-73
2021/07/30 10:20:01;;;;;;;2.38;1.70;;;;;;;23.15;53.04;100655.00;5096934;28;20088;-73
2021/07/30 10:22:50;;;;;;;2.85;2.55;;;;;;;23.16;53.20;100651.47;5115057;28;20043;-72
2021/07/30 10:25:22;;;;;;;3.00;2.15;;;;;;;23.15;53.26;100641.81;5101712;28;20102;-72
2021/07/30 10:27:49;;;;;;;2.72;2.03;;;;;;;23.16;53.30;100642.69;5115030;28;20106;-72
2021/07/30 10:30:16;;;;;;;2.47;1.63;;;;;;;23.16;52.91;100651.47;5101868;28;20035;-72
2021/07/30 10:32:41;;;;;;;2.35;1.65;;;;;;;23.17;53.16;100642.66;5108337;28;20020;-73
2021/07/30 10:35:07;;;;;;;2.40;1.80;;;;;;;23.20;53.04;100640.84;5101853;28;20019;-72
2021/07/30 10:37:42;;;;;;;2.63;1.77;;;;;;;23.16;52.79;100633.00;5120653;28;20049;-73
2021/07/30 10:40:15;;;;;;;1.90;1.40;;;;;;;23.22;52.82;100641.66;5081999;28;20079;-72
2021/07/30 10:42:59;;;;;;;;;;;;;;;23.22;53.03;100626.69;5097017;28;20160;-72
2021/07/30 10:45:24;;;;;;;2.65;1.40;;;;;;;23.24;52.83;100624.03;5114536;28;19907;-72
2021/07/30 10:48:11;;;;;;;2.13;1.63;;;;;;;23.25;53.02;100631.00;5114157;28;20443;-72
2021/07/30 10:50:43;;;;;;;2.42;1.73;;;;;;;23.25;52.81;100625.72;5114217;28;20035;-72
2021/07/30 10:53:33;;;;;;;2.10;1.67;;;;;;;23.26;52.99;100636.25;5092367;28;20070;-72
2021/07/30 10:56:01;;;;;;;1.92;1.60;;;;;;;23.21;52.83;100632.88;5093728;28;20020;-72
2021/07/30 10:58:44;;;;;;;2.92;2.20;;;;;;;23.24;52.93;100631.94;5109436;28;20470;-72
2021/07/30 11:01:11;;;;;;;2.25;1.50;;;;;;;23.22;53.14;100621.44;5092594;28;20024;-72
2021/07/30 11:03:51;;;;;;;2.88;2.13;;;;;;;23.21;52.88;100629.38;5093646;28;20024;-73
2021/07/30 11:06:17;;;;;;;2.17;1.60;;;;;;;23.21;53.02;100626.75;5093603;28;20031;-72
2021/07/30 11:11:45;;;;;;;3.05;1.83;;;;;;;23.19;53.16;100618.00;5093785;28;20470;-72
2021/07/30 11:14:14;;;;;;;1.73;1.42;;;;;;;23.17;53.19;100623.31;5093231;28;20493;-72
2021/07/30 11:16:40;;;;;;;2.20;1.60;;;;;;;23.14;53.21;100626.91;5092774;28;20482;-72
2021/07/30 11:19:06;;;;;;;2.28;1.65;;;;;;;23.06;53.29;100613.06;5092669;28;20036;-72
2021/07/30 11:21:32;;;;;;;2.10;1.58;;;;;;;23.08;53.15;100627.09;5092310;28;20020;-72
2021/07/30 11:23:58;;;;;;;2.70;1.92;;;;;;;23.11;53.41;100634.00;5093694;28;20046;-72
2021/07/30 11:26:24;;;;;;;2.47;1.65;;;;;;;23.10;53.56;100640.22;5109210;28;20038;-72
2021/07/30 11:29:00;;;;;;;2.10;1.52;;;;;;;23.07;53.60;100648.22;5093517;28;20085;-74
2021/07/30 11:31:26;;;;;;;2.95;2.10;;;;;;;23.05;53.18;100645.63;5076079;28;20029;-72